Time;durP1;ratioP1;P1;durP2;ratioP2;P2;SDS_P1;SDS_P2;PMS_P1;PMS_P2;Temp;Humidity;BMP_temperature;BMP_pressure;BME280_temperature;BME280_humidity;BME280_pressure;Samples;Min_cycle;Max_cycle;Signal;HPM_P1;HPM_P2
2023/01/09 00:00:25;;;;;;;14.07;9.25;;;;;;;;;;5097285;28;20118;-65
2023/01/09 00:02:51;;;;;;;11.27;9.52;;;;;;;;;;5097014;28;20549;-66
2023/01/09 00:05:19;;;;;;;11.23;8.65;;;;;;;;;;5100660;28;20036;-65
2023/01/09 00:07:45;;;;;;;9.30;7.90;;;;;;;;;;5102404;28;20482;-65
2023/01/09 00:10:11;;;;;;;10.20;9.20;;;;;;;;;;5091362;28;20046;-66
2023/01/09 00:12:37;;;;;;;12.10;9.80;;;;;;;;;;5100209;28;20079;-65
2023/01/09 00:15:04;;;;;;;8.25;7.43;;;;;;;;;;5089359;28;20052;-65
2023/01/09 00:17:30;;;;;;;7.75;6.97;;;;;;;;;;5088827;28;20711;-66
2023/01/09 00:19:57;;;;;;;8.18;7.35;;;;;;;;;;5088222;28;20057;-66
2023/01/09 00:22:23;;;;;;;7.90;7.20;;;;;;;;;;5101586;28;20032;-66
2023/01/09 00:24:49;;;;;;;8.02;7.28;;;;;;;;;;5088879;28;20028;-66
2023/01/09 00:27:15;;;;;;;8.82;6.95;;;;;;;;;;5092152;28;20177;-65
2023/01/09 00:29:40;;;;;;;7.75;7.00;;;;;;;;;;5097325;28;20537;-66
2023/01/09 00:32:09;;;;;;;7.75;7.05;;;;;;;;;;5088696;28;20141;-66
2023/01/09 00:34:36;;;;;;;7.63;6.93;;;;;;;;;;5088732;28;20479;-66
2023/01/09 00:37:03;;;;;;;6.40;5.82;;;;;;;;;;5089308;28;20028;-65
2023/01/09 00:39:29;;;;;;;5.78;5.28;;;;;;;;;;5092737;28;20118;-65
2023/01/09 00:41:55;;;;;;;5.80;5.40;;;;;;;;;;5108835;28;20122;-66
2023/01/09 00:44:24;;;;;;;5.97;5.55;;;;;;;;;;5097437;28;20549;-66
2023/01/09 00:46:55;;;;;;;5.82;5.40;;;;;;;;;;5088306;28;20122;-66
2023/01/09 00:49:21;;;;;;;6.30;5.80;;;;;;;;;;5090595;28;20081;-66
2023/01/09 00:51:47;;;;;;;5.82;5.40;;;;;;;;;;5088472;28;20056;-65
2023/01/09 00:54:16;;;;;;;6.45;5.95;;;;;;;;;;5088584;28;20063;-66
2023/01/09 00:56:42;;;;;;;;;;;;;;;;;;5089227;28;20510;-66
2023/01/09 00:59:07;;;;;;;6.35;5.75;;;;;;;;;;5103576;27;20427;-65
2023/01/09 01:01:33;;;;;;;6.00;5.50;;;;;;;;;;5088365;28;20027;-65
2023/01/09 01:07:37;;;;;;;6.13;5.63;;;;;;;;;;5099361;28;20471;-65
2023/01/09 01:09:28;;;;;;;6.40;5.90;;;;;;;;;;5095002;28;20130;-66
2023/01/09 01:11:54;;;;;;;6.15;5.65;;;;;;;;;;5098863;28;20463;-66
2023/01/09 01:14:19;;;;;;;6.72;6.13;;;;;;;;;;5096813;28;20030;-65
2023/01/09 01:16:45;;;;;;;6.85;6.15;;;;;;;;;;5097247;28;20035;-65
2023/01/09 01:19:10;;;;;;;6.47;5.88;;;;;;;;;;5093619;28;20115;-65
2023/01/09 01:21:37;;;;;;;9.88;6.95;;;;;;;;;;5106455;28;20031;-65
2023/01/09 01:24:03;;;;;;;7.13;6.53;;;;;;;;;;5091778;28;20633;-65
2023/01/09 01:26:28;;;;;;;6.85;6.20;;;;;;;;;;5100926;28;20028;-65
2023/01/09 01:28:54;;;;;;;6.80;6.18;;;;;;;;;;5087761;28;20050;-65
2023/01/09 01:31:19;;;;;;;6.30;5.70;;;;;;;;;;5090761;28;20028;-65
2023/01/09 01:33:45;;;;;;;6.60;6.03;;;;;;;;;;5091807;28;20088;-65
2023/01/09 01:36:11;;;;;;;6.03;5.60;;;;;;;;;;5104213;28;20043;-65
2023/01/09 01:38:37;;;;;;;6.05;5.55;;;;;;;;;;5102446;28;20043;-64
2023/01/09 01:41:03;;;;;;;6.10;5.60;;;;;;;;;;5093550;28;20049;-64
2023/01/09 01:43:52;;;;;;;6.35;5.75;;;;;;;;;;5099820;28;20031;-64
2023/01/09 01:46:18;;;;;;;6.75;5.38;;;;;;;;;;5106250;28;20047;-65
2023/01/09 01:48:46;;;;;;;5.80;5.40;;;;;;;;;;5087479;28;20681;-64
2023/01/09 01:51:15;;;;;;;5.35;5.03;;;;;;;;;;5087483;28;20032;-64
2023/01/09 01:53:49;;;;;;;5.32;4.82;;;;;;;;;;5106411;28;20517;-65
2023/01/09 01:56:16;;;;;;;5.38;4.97;;;;;;;;;;5091495;28;20036;-65
2023/01/09 01:59:02;;;;;;;5.40;5.00;;;;;;;;;;5090570;28;20023;-64
2023/01/09 02:01:28;;;;;;;5.55;5.10;;;;;;;;;;5095449;28;20058;-65
2023/01/09 02:03:56;;;;;;;5.45;5.05;;;;;;;;;;5087484;28;20040;-65
2023/01/09 02:06:21;;;;;;;4.90;4.50;;;;;;;;;;5090468;28;20040;-65
2023/01/09 02:08:48;;;;;;;4.70;4.40;;;;;;;;;;5087019;28;20594;-65
2023/01/09 02:11:17;;;;;;;4.60;4.30;;;;;;;;;;5087405;28;20062;-65
2023/01/09 02:13:43;;;;;;;4.57;4.38;;;;;;;;;;5088963;28;20040;-65
2023/01/09 02:16:17;;;;;;;4.60;4.30;;;;;;;;;;5086462;28;20069;-65
2023/01/09 02:19:01;;;;;;;4.78;4.47;;;;;;;;;;5090948;28;20044;-65
2023/01/09 02:21:49;;;;;;;4.53;4.22;;;;;;;;;;5098203;28;20032;-65
2023/01/09 02:24:55;;;;;;;4.70;4.40;;;;;;;;;;5102990;28;20032;-64
2023/01/09 02:27:45;;;;;;;4.15;3.95;;;;;;;;;;5070377;28;20058;-64
2023/01/09 02:30:20;;;;;;;4.32;4.13;;;;;;;;;;5094675;28;20650;-64
2023/01/09 02:33:10;;;;;;;4.53;4.18;;;;;;;;;;5102828;28;20061;-65
2023/01/09 02:35:47;;;;;;;4.00;3.80;;;;;;;;;;5095311;28;20082;-65
2023/01/09 02:38:22;;;;;;;3.92;3.72;;;;;;;;;;5093068;28;20043;-64
2023/01/09 02:41:01;;;;;;;4.10;3.90;;;;;;;;;;5091814;28;20036;-64
2023/01/09 02:43:27;;;;;;;4.13;3.92;;;;;;;;;;5090833;28;20055;-64
2023/01/09 02:45:53;;;;;;;4.10;3.90;;;;;;;;;;5090546;28;20038;-64
2023/01/09 02:48:19;;;;;;;4.05;3.85;;;;;;;;;;5090564;28;20362;-64
2023/01/09 02:50:59;;;;;;;4.32;4.10;;;;;;;;;;5090613;28;20047;-64
2023/01/09 02:54:10;;;;;;;4.00;3.80;;;;;;;;;;5090821;28;20482;-64
2023/01/09 02:56:57;;;;;;;4.40;4.00;;;;;;;;;;5094572;28;20036;-63
2023/01/09 02:59:32;;;;;;;4.25;4.05;;;;;;;;;;5099265;28;20478;-62
2023/01/09 03:02:13;;;;;;;4.18;3.95;;;;;;;;;;5110714;28;20122;-64
2023/01/09 03:05:02;;;;;;;4.13;3.92;;;;;;;;;;5094283;28;20023;-63
2023/01/09 03:07:36;;;;;;;4.40;4.07;;;;;;;;;;5098489;28;20506;-64
2023/01/09 03:10:12;;;;;;;4.25;4.03;;;;;;;;;;5099736;28;20028;-65
2023/01/09 03:12:41;;;;;;;4.43;4.22;;;;;;;;;;5090521;28;20100;-64
2023/01/09 03:15:10;;;;;;;4.15;3.95;;;;;;;;;;5091795;28;20558;-65
2023/01/09 03:17:44;;;;;;;3.90;3.70;;;;;;;;;;5090177;28;20161;-66
2023/01/09 03:20:13;;;;;;;4.40;4.20;;;;;;;;;;5090077;28;20506;-65
2023/01/09 03:22:51;;;;;;;4.25;4.05;;;;;;;;;;5094095;28;20666;-66
2023/01/09 03:25:17;;;;;;;4.30;4.00;;;;;;;;;;5093363;28;20107;-65
2023/01/09 03:27:42;;;;;;;4.00;3.80;;;;;;;;;;5100416;28;20107;-65
2023/01/09 03:30:09;;;;;;;4.30;4.10;;;;;;;;;;5093051;28;20475;-65
2023/01/09 03:32:34;;;;;;;4.40;4.20;;;;;;;;;;5095400;28;20126;-65
2023/01/09 03:35:01;;;;;;;4.72;4.53;;;;;;;;;;5095095;28;20440;-65
2023/01/09 03:37:26;;;;;;;5.00;4.80;;;;;;;;;;5094603;28;20070;-65
2023/01/09 03:39:52;;;;;;;5.00;4.80;;;;;;;;;;5090289;28;20058;-66
2023/01/09 03:42:17;;;;;;;4.90;4.70;;;;;;;;;;5100340;28;20031;-66
2023/01/09 03:44:43;;;;;;;5.20;4.93;;;;;;;;;;5090816;28;20055;-66
2023/01/09 03:47:08;;;;;;;5.00;4.70;;;;;;;;;;5094784;28;20019;-65
2023/01/09 03:49:34;;;;;;;5.10;4.90;;;;;;;;;;5105980;28;20108;-65
2023/01/09 03:51:59;;;;;;;5.10;4.90;;;;;;;;;;5098450;28;20023;-65
2023/01/09 03:54:25;;;;;;;5.30;5.00;;;;;;;;;;5109804;28;20023;-66
2023/01/09 03:56:50;;;;;;;5.50;5.22;;;;;;;;;;5094528;28;20050;-66
2023/01/09 03:59:16;;;;;;;5.50;5.20;;;;;;;;;;5095880;28;20074;-65
2023/01/09 04:01:42;;;;;;;5.40;5.13;;;;;;;;;;5088976;28;20044;-66
2023/01/09 04:04:07;;;;;;;5.50;5.20;;;;;;;;;;5107858;27;20051;-66
2023/01/09 04:06:33;;;;;;;5.43;5.13;;;;;;;;;;5103786;27;20043;-66
2023/01/09 04:08:58;;;;;;;6.10;5.70;;;;;;;;;;5104315;28;20023;-66
2023/01/09 04:11:24;;;;;;;5.93;5.63;;;;;;;;;;5109786;28;20107;-65
2023/01/09 04:13:49;;;;;;;5.57;5.28;;;;;;;;;;5102402;28;20106;-65
2023/01/09 04:16:15;;;;;;;5.60;5.30;;;;;;;;;;5089852;28;20038;-65
2023/01/09 04:18:40;;;;;;;5.82;5.53;;;;;;;;;;5094018;28;20039;-66
2023/01/09 04:21:06;;;;;;;5.90;5.40;;;;;;;;;;5109751;28;20102;-65
2023/01/09 04:23:31;;;;;;;5.80;5.40;;;;;;;;;;5095710;28;20526;-65
2023/01/09 04:25:57;;;;;;;5.63;5.13;;;;;;;;;;5088910;28;20533;-65
2023/01/09 04:28:23;;;;;;;5.85;5.43;;;;;;;;;;5088568;28;20104;-65
2023/01/09 04:30:48;;;;;;;5.90;5.32;;;;;;;;;;5091349;28;20036;-66
2023/01/09 04:33:14;;;;;;;6.75;6.10;;;;;;;;;;5088537;28;20032;-65
2023/01/09 04:35:39;;;;;;;5.80;5.38;;;;;;;;;;5088749;28;20035;-66
2023/01/09 04:38:05;;;;;;;5.70;5.30;;;;;;;;;;5088448;28;20077;-65
2023/01/09 04:40:30;;;;;;;5.75;5.45;;;;;;;;;;5096719;28;20093;-66
2023/01/09 04:42:56;;;;;;;5.80;5.50;;;;;;;;;;5092081;28;20402;-66
2023/01/09 04:45:21;;;;;;;7.07;5.32;;;;;;;;;;5091041;28;20035;-66
2023/01/09 04:47:47;;;;;;;5.75;5.45;;;;;;;;;;5107336;28;20104;-66
2023/01/09 04:50:13;;;;;;;5.32;5.13;;;;;;;;;;5095306;28;20036;-65
2023/01/09 04:52:39;;;;;;;5.68;5.38;;;;;;;;;;5094717;28;20032;-65
2023/01/09 04:55:06;;;;;;;5.70;5.40;;;;;;;;;;5089650;28;20032;-66
2023/01/09 04:57:32;;;;;;;5.43;5.13;;;;;;;;;;5088992;28;20506;-66
2023/01/09 04:59:57;;;;;;;5.60;5.30;;;;;;;;;;5095979;28;20042;-66
2023/01/09 05:02:23;;;;;;;5.40;5.20;;;;;;;;;;5094879;28;20436;-65
2023/01/09 05:04:48;;;;;;;5.47;5.18;;;;;;;;;;5091407;28;20031;-66
2023/01/09 05:07:14;;;;;;;5.60;5.30;;;;;;;;;;5095098;28;20028;-65
2023/01/09 05:09:40;;;;;;;5.13;4.93;;;;;;;;;;5096697;28;20114;-66
2023/01/09 05:12:05;;;;;;;5.18;4.88;;;;;;;;;;5090615;28;20081;-66
2023/01/09 05:14:31;;;;;;;5.63;5.25;;;;;;;;;;5097666;28;20154;-66
2023/01/09 05:16:56;;;;;;;5.32;5.03;;;;;;;;;;5097648;28;20058;-66
2023/01/09 05:19:22;;;;;;;5.40;5.10;;;;;;;;;;5089178;28;20032;-66
2023/01/09 05:21:48;;;;;;;5.30;5.10;;;;;;;;;;5107077;28;20102;-66
2023/01/09 05:24:13;;;;;;;5.70;5.38;;;;;;;;;;5101106;28;20043;-66
2023/01/09 05:26:39;;;;;;;5.28;5.00;;;;;;;;;;5087578;28;20032;-66
2023/01/09 05:29:04;;;;;;;5.32;5.10;;;;;;;;;;5100027;28;20035;-65
2023/01/09 05:31:30;;;;;;;5.63;5.32;;;;;;;;;;5097966;28;20054;-65
2023/01/09 05:33:58;;;;;;;5.75;5.45;;;;;;;;;;5105864;28;20452;-65
2023/01/09 05:36:23;;;;;;;6.43;6.00;;;;;;;;;;5105303;28;20058;-65
2023/01/09 05:38:49;;;;;;;5.40;5.05;;;;;;;;;;5097689;28;20036;-66
2023/01/09 05:41:14;;;;;;;5.90;5.38;;;;;;;;;;5094554;28;20034;-65
2023/01/09 05:43:40;;;;;;;5.30;5.10;;;;;;;;;;5093502;28;20071;-65
2023/01/09 05:46:05;;;;;;;5.38;5.00;;;;;;;;;;5098080;28;20031;-66
2023/01/09 05:48:31;;;;;;;5.40;5.07;;;;;;;;;;5109026;28;20060;-65
2023/01/09 05:50:56;;;;;;;5.00;4.80;;;;;;;;;;5102939;28;20039;-66
2023/01/09 05:53:22;;;;;;;5.43;5.13;;;;;;;;;;5112388;28;20433;-65
2023/01/09 05:55:47;;;;;;;5.43;4.93;;;;;;;;;;5093237;28;20027;-66
2023/01/09 05:58:13;;;;;;;5.40;5.10;;;;;;;;;;5091010;28;20028;-67
2023/01/09 06:00:39;;;;;;;5.88;5.47;;;;;;;;;;5091557;28;20059;-66
2023/01/09 06:03:04;;;;;;;5.80;5.40;;;;;;;;;;5091612;28;20122;-67
2023/01/09 06:05:30;;;;;;;6.15;5.70;;;;;;;;;;5090820;28;20406;-66
2023/01/09 06:07:55;;;;;;;6.80;6.30;;;;;;;;;;5091202;28;20111;-66
2023/01/09 06:10:21;;;;;;;6.60;6.00;;;;;;;;;;5090847;28;20036;-66
2023/01/09 06:12:50;;;;;;;6.10;5.70;;;;;;;;;;5091482;28;20032;-66
2023/01/09 06:15:16;;;;;;;;;;;;;;;;;;5092116;28;20055;-67
2023/01/09 06:17:42;;;;;;;5.85;5.50;;;;;;;;;;5091105;28;19916;-66
2023/01/09 06:20:09;;;;;;;5.70;5.40;;;;;;;;;;5090755;28;20122;-66
2023/01/09 06:22:35;;;;;;;5.90;5.60;;;;;;;;;;5092784;28;20129;-66
2023/01/09 06:25:01;;;;;;;5.82;5.43;;;;;;;;;;5094312;28;20028;-66
2023/01/09 06:27:26;;;;;;;5.90;5.50;;;;;;;;;;5090529;28;20092;-66
2023/01/09 06:29:52;;;;;;;5.80;5.40;;;;;;;;;;5090516;28;20043;-66
2023/01/09 06:32:17;;;;;;;5.95;5.57;;;;;;;;;;5090988;28;20063;-67
2023/01/09 06:34:43;;;;;;;6.00;5.60;;;;;;;;;;5090666;28;20107;-66
2023/01/09 06:37:09;;;;;;;5.90;5.50;;;;;;;;;;5090815;28;20119;-66
2023/01/09 06:39:35;;;;;;;5.63;5.32;;;;;;;;;;5091735;28;20081;-67
2023/01/09 06:42:00;;;;;;;5.65;5.35;;;;;;;;;;5100791;28;20040;-67
2023/01/09 06:44:26;;;;;;;5.60;5.20;;;;;;;;;;5095628;28;20086;-67
2023/01/09 06:46:51;;;;;;;6.00;5.38;;;;;;;;;;5092738;28;20074;-67
2023/01/09 06:49:22;;;;;;;5.82;5.53;;;;;;;;;;5093494;28;20108;-67
2023/01/09 06:51:49;;;;;;;6.10;5.70;;;;;;;;;;5111062;28;20061;-67
2023/01/09 06:54:16;;;;;;;6.32;5.90;;;;;;;;;;5102769;28;20240;-67
2023/01/09 06:56:42;;;;;;;6.95;6.28;;;;;;;;;;5095149;28;20036;-67
2023/01/09 06:59:08;;;;;;;6.70;6.10;;;;;;;;;;5089776;28;20441;-65
2023/01/09 07:01:33;;;;;;;6.68;6.00;;;;;;;;;;5101372;28;20032;-65
2023/01/09 07:03:59;;;;;;;6.15;5.60;;;;;;;;;;5089396;28;20344;-65
2023/01/09 07:06:24;;;;;;;6.00;5.50;;;;;;;;;;5090421;28;20036;-65
2023/01/09 07:08:50;;;;;;;5.97;5.57;;;;;;;;;;5090087;28;20479;-64
2023/01/09 07:11:16;;;;;;;5.78;5.38;;;;;;;;;;5089864;28;20119;-64
2023/01/09 07:13:41;;;;;;;6.07;5.68;;;;;;;;;;5089963;28;20229;-65
2023/01/09 07:16:07;;;;;;;5.93;5.63;;;;;;;;;;5093993;28;20039;-65
2023/01/09 07:18:33;;;;;;;6.18;5.75;;;;;;;;;;5109678;28;20059;-64
2023/01/09 07:20:58;;;;;;;6.10;5.70;;;;;;;;;;5100364;28;20070;-64
2023/01/09 07:23:24;;;;;;;6.00;5.60;;;;;;;;;;5090247;28;20470;-64
2023/01/09 07:25:50;;;;;;;7.47;5.45;;;;;;;;;;5100512;28;20511;-65
2023/01/09 07:28:16;;;;;;;5.65;5.35;;;;;;;;;;5106918;28;20035;-65
2023/01/09 07:30:41;;;;;;;5.82;5.28;;;;;;;;;;5101008;28;20134;-65
2023/01/09 07:33:07;;;;;;;5.90;5.50;;;;;;;;;;5089620;28;20114;-65
2023/01/09 07:35:33;;;;;;;5.88;5.50;;;;;;;;;;5104357;28;20040;-64
2023/01/09 07:37:58;;;;;;;5.55;5.25;;;;;;;;;;5107303;28;20035;-64
2023/01/09 07:40:25;;;;;;;5.72;5.43;;;;;;;;;;5101437;28;20078;-64
2023/01/09 07:42:52;;;;;;;6.22;5.57;;;;;;;;;;5092991;28;20032;-64
2023/01/09 07:45:18;;;;;;;6.70;6.05;;;;;;;;;;5089081;28;20399;-64
2023/01/09 07:47:43;;;;;;;6.10;5.50;;;;;;;;;;5089368;28;20305;-64
2023/01/09 07:50:09;;;;;;;5.93;5.47;;;;;;;;;;5088484;28;20047;-64
2023/01/09 07:52:35;;;;;;;5.50;5.20;;;;;;;;;;5089031;28;20043;-63
2023/01/09 07:55:01;;;;;;;5.93;5.28;;;;;;;;;;5089310;28;20028;-64
2023/01/09 07:57:28;;;;;;;6.07;5.68;;;;;;;;;;5093599;28;20066;-64
2023/01/09 07:59:54;;;;;;;5.50;5.20;;;;;;;;;;5097231;28;20114;-64
2023/01/09 08:02:19;;;;;;;5.93;5.60;;;;;;;;;;5092101;28;20505;-64
2023/01/09 08:04:45;;;;;;;5.70;5.40;;;;;;;;;;5090953;28;20035;-64
2023/01/09 08:07:10;;;;;;;6.28;5.35;;;;;;;;;;5088952;28;20349;-64
2023/01/09 08:09:36;;;;;;;6.05;5.75;;;;;;;;;;5097719;28;20068;-64
2023/01/09 08:12:03;;;;;;;5.50;5.13;;;;;;;;;;5094774;28;20031;-64
2023/01/09 08:14:29;;;;;;;7.18;6.05;;;;;;;;;;5088428;28;20125;-63
2023/01/09 08:16:54;;;;;;;6.10;5.70;;;;;;;;;;5091873;28;20059;-63
2023/01/09 08:19:20;;;;;;;5.93;5.60;;;;;;;;;;5088523;28;20036;-64
2023/01/09 08:21:45;;;;;;;6.13;5.72;;;;;;;;;;5088612;28;20036;-64
2023/01/09 08:24:11;;;;;;;5.93;5.63;;;;;;;;;;5087915;28;20046;-64
2023/01/09 08:26:36;;;;;;;6.55;5.40;;;;;;;;;;5098167;28;20481;-64
2023/01/09 08:29:02;;;;;;;6.00;5.50;;;;;;;;;;5102403;28;20049;-64
2023/01/09 08:31:27;;;;;;;6.50;6.00;;;;;;;;;;5091756;28;20063;-64
2023/01/09 08:33:53;;;;;;;5.60;5.15;;;;;;;;;;5087892;28;20109;-64
2023/01/09 08:36:19;;;;;;;6.20;5.60;;;;;;;;;;5088219;28;20073;-64
2023/01/09 08:38:44;;;;;;;6.57;5.85;;;;;;;;;;5088314;28;20107;-65
2023/01/09 08:49:22;;;;;;;6.45;5.93;;;;;;;;;;5101049;28;20483;-64
2023/01/09 08:51:47;;;;;;;6.32;5.78;;;;;;;;;;5091752;28;20061;-64
2023/01/09 08:54:13;;;;;;;6.30;5.70;;;;;;;;;;5089218;28;20039;-64
2023/01/09 08:56:39;;;;;;;6.40;5.70;;;;;;;;;;5088568;28;20039;-63
2023/01/09 08:59:04;;;;;;;6.00;5.60;;;;;;;;;;5088144;28;20081;-64
2023/01/09 09:01:31;;;;;;;6.25;5.80;;;;;;;;;;5096897;28;20043;-64
2023/01/09 09:03:56;;;;;;;6.03;5.60;;;;;;;;;;5108493;28;20019;-64
2023/01/09 09:06:22;;;;;;;6.13;5.60;;;;;;;;;;5096962;28;20173;-63
2023/01/09 09:08:47;;;;;;;5.80;5.40;;;;;;;;;;5091260;28;20028;-64
2023/01/09 09:11:13;;;;;;;5.80;5.47;;;;;;;;;;5087946;28;20039;-63
2023/01/09 09:13:38;;;;;;;8.18;6.00;;;;;;;;;;5097155;28;20039;-63
2023/01/09 09:16:04;;;;;;;6.13;5.57;;;;;;;;;;5090325;28;20098;-64
2023/01/09 09:18:30;;;;;;;6.50;5.88;;;;;;;;;;5088890;28;20552;-64
2023/01/09 09:20:55;;;;;;;5.97;5.68;;;;;;;;;;5097080;28;20027;-64
2023/01/09 09:23:22;;;;;;;6.25;5.75;;;;;;;;;;5108259;28;20058;-64
2023/01/09 09:25:48;;;;;;;5.85;5.40;;;;;;;;;;5096704;28;20489;-63
2023/01/09 09:28:13;;;;;;;6.53;5.93;;;;;;;;;;5091518;28;20035;-63
2023/01/09 09:30:39;;;;;;;6.35;5.80;;;;;;;;;;5093387;28;20032;-63
2023/01/09 09:33:05;;;;;;;6.38;5.82;;;;;;;;;;5092147;28;20067;-63
2023/01/09 09:35:32;;;;;;;10.23;6.47;;;;;;;;;;5089174;28;20034;-64
2023/01/09 09:38:01;;;;;;;6.72;6.00;;;;;;;;;;5087735;28;20135;-64
2023/01/09 09:40:35;;;;;;;6.97;6.22;;;;;;;;;;5092014;28;20490;-64
2023/01/09 09:46:25;;;;;;;6.70;6.20;;;;;;;;;;5096710;28;20573;-64
2023/01/09 09:49:20;;;;;;;6.68;6.07;;;;;;;;;;5091852;28;20032;-63
2023/01/09 09:52:26;;;;;;;6.15;5.68;;;;;;;;;;5089447;28;20490;-65
2023/01/09 09:54:51;;;;;;;6.32;5.78;;;;;;;;;;5089007;28;20418;-65
2023/01/09 09:57:26;;;;;;;6.97;6.38;;;;;;;;;;5090546;28;20502;-65
2023/01/09 09:59:52;;;;;;;7.07;6.47;;;;;;;;;;5088129;28;20681;-64
2023/01/09 10:02:23;;;;;;;6.30;5.90;;;;;;;;;;5087419;28;20035;-65
2023/01/09 10:05:11;;;;;;;8.43;6.40;;;;;;;;;;5098305;28;20035;-65
2023/01/09 10:07:45;;;;;;;6.82;6.32;;;;;;;;;;5090022;28;20078;-65
2023/01/09 10:10:17;;;;;;;6.72;6.22;;;;;;;;;;5096659;28;20398;-65
2023/01/09 10:12:53;;;;;;;7.50;6.50;;;;;;;;;;5087482;28;20039;-65
2023/01/09 10:15:29;;;;;;;7.10;6.50;;;;;;;;;;5088173;28;20070;-65
2023/01/09 10:18:18;;;;;;;6.68;6.05;;;;;;;;;;5100851;28;20040;-64
2023/01/09 10:20:51;;;;;;;7.25;6.57;;;;;;;;;;5102587;28;20064;-65
2023/01/09 10:23:49;;;;;;;6.32;5.82;;;;;;;;;;5091741;28;20398;-65
2023/01/09 10:26:26;;;;;;;7.75;6.75;;;;;;;;;;5098299;28;20081;-66
2023/01/09 10:28:52;;;;;;;6.88;6.28;;;;;;;;;;5088769;28;20040;-65
2023/01/09 10:31:51;;;;;;;6.45;5.90;;;;;;;;;;5097544;28;20031;-65
2023/01/09 10:34:19;;;;;;;;;;;;;;;;;;5088316;28;20035;-65
2023/01/09 10:36:58;;;;;;;7.13;6.03;;;;;;;;;;5098801;28;20197;-65
2023/01/09 10:39:42;;;;;;;8.02;6.43;;;;;;;;;;5091959;28;20039;-65
2023/01/09 10:42:25;;;;;;;6.55;5.95;;;;;;;;;;5089829;28;20036;-65
2023/01/09 10:45:09;;;;;;;8.40;5.95;;;;;;;;;;5097276;28;20084;-65
2023/01/09 10:47:38;;;;;;;7.18;5.90;;;;;;;;;;5102827;28;20036;-65
2023/01/09 10:50:22;;;;;;;5.80;5.28;;;;;;;;;;5097803;28;20055;-65
2023/01/09 10:52:53;;;;;;;5.93;5.38;;;;;;;;;;5088776;28;20040;-65
2023/01/09 10:55:38;;;;;;;8.02;5.32;;;;;;;;;;5100690;28;20502;-65
2023/01/09 10:58:12;;;;;;;5.45;5.00;;;;;;;;;;5100630;28;20031;-65
2023/01/09 11:00:39;;;;;;;5.65;5.25;;;;;;;;;;5105710;28;20028;-65
2023/01/09 11:03:08;;;;;;;6.25;5.75;;;;;;;;;;5101022;28;20035;-65
2023/01/09 11:05:35;;;;;;;6.13;5.68;;;;;;;;;;5104626;28;20031;-65
2023/01/09 11:08:12;;;;;;;6.30;5.80;;;;;;;;;;5096431;28;20032;-64
2023/01/09 11:10:55;;;;;;;6.93;6.22;;;;;;;;;;5090071;28;20058;-65
2023/01/09 11:13:22;;;;;;;6.15;5.55;;;;;;;;;;5104083;28;20031;-65
2023/01/09 11:16:05;;;;;;;6.25;5.75;;;;;;;;;;5109130;28;20023;-66
2023/01/09 11:18:37;;;;;;;6.18;5.65;;;;;;;;;;5091193;27;20055;-65
2023/01/09 11:21:25;;;;;;;7.15;5.80;;;;;;;;;;5093949;28;20496;-65
2023/01/09 11:23:50;;;;;;;6.03;5.53;;;;;;;;;;5093187;28;20038;-65
2023/01/09 11:26:27;;;;;;;6.55;5.90;;;;;;;;;;5104816;28;20290;-65
2023/01/09 11:29:12;;;;;;;8.32;5.45;;;;;;;;;;5089095;28;20519;-66
2023/01/09 11:31:49;;;;;;;6.65;6.10;;;;;;;;;;5089405;28;20020;-64
2023/01/09 11:34:17;;;;;;;6.25;5.72;;;;;;;;;;5089424;28;20042;-65
2023/01/09 11:36:43;;;;;;;6.30;5.70;;;;;;;;;;5089675;28;20024;-65
2023/01/09 11:39:30;;;;;;;5.45;4.88;;;;;;;;;;5094281;28;20057;-65
2023/01/09 11:41:59;;;;;;;5.88;5.18;;;;;;;;;;5100885;28;20032;-65
2023/01/09 11:44:26;;;;;;;5.90;5.38;;;;;;;;;;5089140;28;20161;-65
2023/01/09 11:46:52;;;;;;;7.60;5.18;;;;;;;;;;5094807;28;20039;-65
2023/01/09 11:49:22;;;;;;;7.00;5.85;;;;;;;;;;5097651;28;20031;-65
2023/01/09 11:52:12;;;;;;;5.60;5.07;;;;;;;;;;5091864;28;20035;-65
2023/01/09 11:54:43;;;;;;;5.55;5.15;;;;;;;;;;5088198;28;20042;-66
2023/01/09 11:57:10;;;;;;;5.60;5.07;;;;;;;;;;5100422;28;20038;-66
2023/01/09 11:59:36;;;;;;;6.63;5.50;;;;;;;;;;5096130;28;20077;-65
2023/01/09 12:02:30;;;;;;;5.65;5.25;;;;;;;;;;5097042;28;20436;-65
2023/01/09 12:05:10;;;;;;;6.10;5.55;;;;;;;;;;5092918;28;20036;-66
2023/01/09 12:07:48;;;;;;;5.70;5.30;;;;;;;;;;5096026;28;20412;-65
2023/01/09 12:10:41;;;;;;;7.63;5.90;;;;;;;;;;5087044;28;20036;-66
2023/01/09 12:13:45;;;;;;;8.27;5.65;;;;;;;;;;5087170;28;20035;-66
2023/01/09 12:16:20;;;;;;;6.70;6.10;;;;;;;;;;5094550;28;20048;-65
2023/01/09 12:19:00;;;;;;;5.82;5.32;;;;;;;;;;5094147;28;20040;-65
2023/01/09 12:21:35;;;;;;;6.13;5.63;;;;;;;;;;5096341;28;20324;-66
2023/01/09 12:24:10;;;;;;;5.88;5.47;;;;;;;;;;5098364;28;20153;-66
2023/01/09 12:26:57;;;;;;;6.00;5.60;;;;;;;;;;5086613;28;20036;-65
2023/01/09 12:29:52;;;;;;;8.73;6.07;;;;;;;;;;5097149;28;20122;-65
2023/01/09 12:32:35;;;;;;;7.63;5.32;;;;;;;;;;5087662;28;20513;-66
2023/01/09 12:35:31;;;;;;;5.68;5.22;;;;;;;;;;5097573;28;20035;-66
2023/01/09 12:38:09;;;;;;;5.68;5.25;;;;;;;;;;5098131;28;20035;-65
2023/01/09 12:41:00;;;;;;;9.77;5.90;;;;;;;;;;5088767;28;20083;-66
2023/01/09 12:43:40;;;;;;;6.55;5.70;;;;;;;;;;5092738;28;20522;-66
2023/01/09 12:46:17;;;;;;;7.53;5.93;;;;;;;;;;5104707;28;20063;-66
2023/01/09 12:48:55;;;;;;;8.40;5.75;;;;;;;;;;5100341;28;20483;-66
2023/01/09 12:51:53;;;;;;;6.20;5.75;;;;;;;;;;5093379;28;20042;-66
2023/01/09 12:54:38;;;;;;;6.25;5.60;;;;;;;;;;5046693;28;20088;-66
2023/01/09 12:57:20;;;;;;;7.15;5.85;;;;;;;;;;5088967;28;20039;-66
2023/01/09 12:59:59;;;;;;;5.45;5.00;;;;;;;;;;5086365;28;20036;-66
2023/01/09 13:02:35;;;;;;;5.75;5.25;;;;;;;;;;5106260;28;20547;-66
2023/01/09 13:05:08;;;;;;;5.93;5.50;;;;;;;;;;5098904;28;20032;-65
2023/01/09 13:07:42;;;;;;;6.00;5.50;;;;;;;;;;5088447;28;20383;-66
2023/01/09 13:10:22;;;;;;;5.43;5.05;;;;;;;;;;5094052;28;20399;-66
2023/01/09 13:12:50;;;;;;;5.78;5.32;;;;;;;;;;5105460;28;20339;-66
2023/01/09 13:15:31;;;;;;;9.48;5.70;;;;;;;;;;5103546;28;20056;-66
2023/01/09 13:18:06;;;;;;;5.70;5.20;;;;;;;;;;5100166;28;20380;-66
2023/01/09 13:20:40;;;;;;;5.88;5.35;;;;;;;;;;5098384;28;20233;-66
2023/01/09 13:23:09;;;;;;;9.43;5.80;;;;;;;;;;5087802;28;20031;-66
2023/01/09 13:25:43;;;;;;;6.45;5.38;;;;;;;;;;5091350;28;20058;-66
2023/01/09 13:28:27;;;;;;;5.18;4.88;;;;;;;;;;5096132;28;20470;-66
2023/01/09 13:31:12;;;;;;;6.18;5.68;;;;;;;;;;5105223;28;20062;-65
2023/01/09 13:33:42;;;;;;;6.75;5.90;;;;;;;;;;5103203;28;20505;-65
2023/01/09 13:36:20;;;;;;;9.70;5.93;;;;;;;;;;5098382;28;20031;-65
2023/01/09 13:38:48;;;;;;;6.20;5.65;;;;;;;;;;5088896;28;20147;-64
2023/01/09 13:44:18;;;;;;;6.57;5.60;;;;;;;;;;5097964;28;20046;-64
2023/01/09 13:46:49;;;;;;;6.10;5.60;;;;;;;;;;5091872;28;20568;-65
2023/01/09 13:49:39;;;;;;;6.10;5.60;;;;;;;;;;5086383;28;20043;-64
2023/01/09 13:52:29;;;;;;;5.50;5.18;;;;;;;;;;5095279;28;20024;-64
2023/01/09 13:54:55;;;;;;;5.65;5.22;;;;;;;;;;5105443;28;20153;-64
2023/01/09 13:58:06;;;;;;;5.80;5.25;;;;;;;;;;5086672;28;20113;-64
2023/01/09 14:00:35;;;;;;;5.57;5.20;;;;;;;;;;5082182;28;20044;-64
2023/01/09 14:03:06;;;;;;;6.00;5.50;;;;;;;;;;5106309;28;20035;-64
2023/01/09 14:05:32;;;;;;;5.38;5.07;;;;;;;;;;5095647;28;20126;-64
2023/01/09 14:08:03;;;;;;;5.43;5.10;;;;;;;;;;5086345;28;20691;-64
2023/01/09 14:10:35;;;;;;;5.53;5.05;;;;;;;;;;5096679;28;20359;-63
2023/01/09 14:13:07;;;;;;;5.40;5.00;;;;;;;;;;5106934;28;20027;-63
2023/01/09 14:15:43;;;;;;;5.40;5.10;;;;;;;;;;5089489;28;20036;-63
2023/01/09 14:18:28;;;;;;;5.30;5.00;;;;;;;;;;5092335;28;20035;-63
2023/01/09 14:21:03;;;;;;;5.50;5.20;;;;;;;;;;5099541;28;20040;-64
2023/01/09 14:23:56;;;;;;;5.40;5.10;;;;;;;;;;5092460;28;20040;-64
2023/01/09 14:26:24;;;;;;;5.03;4.75;;;;;;;;;;5090251;28;20097;-64
2023/01/09 14:28:50;;;;;;;5.20;4.80;;;;;;;;;;5089197;28;20609;-63
2023/01/09 14:31:30;;;;;;;5.55;5.25;;;;;;;;;;5089029;28;20040;-63
2023/01/09 14:34:29;;;;;;;5.03;4.72;;;;;;;;;;5095177;28;20666;-64
2023/01/09 14:36:58;;;;;;;5.43;5.13;;;;;;;;;;5089557;28;20036;-64
2023/01/09 14:39:25;;;;;;;5.32;4.93;;;;;;;;;;5105608;28;20482;-64
2023/01/09 14:41:56;;;;;;;5.65;5.35;;;;;;;;;;5107317;28;20490;-64
2023/01/09 14:44:47;;;;;;;5.55;5.25;;;;;;;;;;5096554;28;20085;-64
2023/01/09 14:47:27;;;;;;;5.70;5.20;;;;;;;;;;5108881;28;20042;-64
2023/01/09 14:49:57;;;;;;;5.35;4.95;;;;;;;;;;5093584;28;20080;-64
2023/01/09 14:52:36;;;;;;;5.40;5.00;;;;;;;;;;5101031;28;20097;-65
2023/01/09 14:55:06;;;;;;;5.60;5.10;;;;;;;;;;5101546;28;20505;-64
2023/01/09 14:57:33;;;;;;;5.60;5.20;;;;;;;;;;5103534;28;20067;-64
2023/01/09 15:00:11;;;;;;;5.18;4.80;;;;;;;;;;5090945;28;20047;-64
2023/01/09 15:02:38;;;;;;;5.57;5.10;;;;;;;;;;5096636;28;20092;-64
2023/01/09 15:05:10;;;;;;;6.75;4.88;;;;;;;;;;5099184;27;20375;-65
2023/01/09 15:07:43;;;;;;;5.50;5.10;;;;;;;;;;5102131;28;20509;-64
2023/01/09 15:10:34;;;;;;;5.10;4.72;;;;;;;;;;5089519;28;20020;-64
2023/01/09 15:13:01;;;;;;;5.97;5.38;;;;;;;;;;5098687;28;20032;-63
2023/01/09 15:15:28;;;;;;;6.55;5.55;;;;;;;;;;5092707;28;20383;-65
2023/01/09 15:17:56;;;;;;;5.70;5.30;;;;;;;;;;5098628;28;20359;-65
2023/01/09 15:20:27;;;;;;;5.45;5.15;;;;;;;;;;5103051;28;20028;-65
2023/01/09 15:22:54;;;;;;;5.75;5.32;;;;;;;;;;5102930;28;20364;-66